.
WxDataArchive / Data Records for 2009-08-12
2009-08-11 August 2009 2009-08-13

Data Records for Wednesday, 12 August 2009

Time	Temp	Chill	HIndex	Humid	Dewpt	 Wind 	HiWind	WindDir	Rain 	Barom 
-----	----	-----	------	-----	-----	------	------	-------	-----	----- 
00:00	67.6	67.6	67.6	84	62.6	0	1	292	0.00	29.995 
00:05	67.4	67.4	67.4	84	62.4	0	1	292	0.00	29.995 
00:10	67.3	67.3	67.3	84	62.3	0	0	---	0.00	29.995 
00:15	67.1	67.1	67.1	84	62.1	0	0	---	0.00	29.992 
00:20	66.9	66.9	66.9	85	62.2	0	1	292	0.00	29.992 
00:25	66.8	66.8	66.8	85	62.1	0	1	292	0.00	29.992 
00:30	66.6	66.6	66.6	85	61.9	0	1	292	0.00	29.991 
00:35	66.4	66.4	66.4	86	62.1	0	0	---	0.00	29.991 
00:40	66.4	66.4	66.4	86	62.1	0	0	---	0.00	29.991 
00:45	66.3	66.3	66.3	86	62.0	0	1	292	0.00	29.993 
00:50	66.1	66.1	66.1	86	61.8	0	0	---	0.00	29.993 
00:55	66.1	66.1	66.1	87	62.1	0	1	292	0.00	29.993 
01:00	66.0	66.0	66.0	87	62.0	0	0	---	0.00	29.993 
01:05	65.8	65.8	65.8	87	61.8	0	1	292	0.00	29.993 
01:10	65.6	65.6	65.6	88	61.9	0	0	---	0.00	29.993 
01:15	65.6	65.6	65.6	88	61.9	0	0	---	0.00	29.987 
01:20	65.5	65.5	65.5	88	61.8	0	1	292	0.00	29.987 
01:25	65.5	65.5	65.5	88	61.8	0	1	292	0.00	29.987 
01:30	65.3	65.3	65.3	88	61.6	0	0	---	0.00	29.988 
01:35	65.3	65.3	65.3	88	61.6	0	1	292	0.00	29.988 
01:40	65.2	65.2	65.2	89	61.9	0	0	---	0.00	29.988 
01:45	65.2	65.2	65.2	89	61.9	0	0	---	0.00	29.986 
01:50	65.0	65.0	65.0	89	61.7	0	0	---	0.00	29.986 
01:55	65.0	65.0	65.0	89	61.7	0	0	---	0.00	29.986 
02:00	64.8	64.8	64.8	89	61.5	0	0	---	0.00	29.987 
02:05	64.8	64.8	64.8	89	61.5	0	0	---	0.00	29.987 
02:10	64.8	64.8	64.8	89	61.5	0	1	292	0.00	29.987 
02:15	64.7	64.7	64.7	89	61.4	0	0	---	0.00	29.991 
02:20	64.7	64.7	64.7	90	61.7	0	0	---	0.00	29.991 
02:25	64.5	64.5	64.5	90	61.5	0	0	---	0.00	29.991 
02:30	64.3	64.3	64.3	90	61.3	0	0	---	0.00	29.990 
02:35	64.3	64.3	64.3	90	61.3	0	0	---	0.00	29.990 
02:40	64.2	64.2	64.2	90	61.2	0	0	---	0.00	29.990 
02:45	64.0	64.0	64.0	91	61.3	0	1	292	0.00	29.991 
02:50	63.9	63.9	63.9	91	61.2	0	0	---	0.00	29.991 
02:55	63.9	63.9	63.9	91	61.2	0	0	---	0.00	29.991 
03:00	63.9	63.9	63.9	91	61.2	0	0	---	0.00	29.991 
03:05	63.7	63.7	63.7	91	61.0	0	0	---	0.00	29.991 
03:10	63.5	63.5	63.5	91	60.8	0	0	---	0.00	29.991 
03:15	63.5	63.5	63.5	91	60.8	0	0	---	0.00	30.006 
03:20	63.5	63.5	63.5	91	60.8	0	0	---	0.00	30.006 
03:25	63.4	63.4	63.4	92	61.0	0	0	---	0.00	30.006 
03:30	63.4	63.4	63.4	92	61.0	0	1	292	0.00	30.007 
03:35	63.2	63.2	63.2	92	60.8	0	0	---	0.00	30.007 
03:40	63.2	63.2	63.2	92	60.8	0	0	---	0.00	30.007 
03:45	63.1	63.1	63.1	92	60.7	0	0	---	0.00	30.009 
03:50	63.1	63.1	63.1	92	60.7	0	0	---	0.00	30.009 
03:55	63.1	63.1	63.1	92	60.7	0	0	---	0.00	30.009 
04:00	63.1	63.1	63.1	92	60.7	0	0	---	0.00	30.008 
04:05	62.9	62.9	62.9	92	60.5	0	0	---	0.00	30.008 
04:10	62.9	62.9	62.9	92	60.5	0	0	---	0.00	30.008 
04:15	62.9	62.9	62.9	92	60.5	0	0	---	0.00	30.009 
04:20	62.9	62.9	62.9	92	60.5	0	0	---	0.00	30.009 
04:25	62.9	62.9	62.9	93	60.8	0	0	---	0.00	30.009 
04:30	62.9	62.9	62.9	93	60.8	0	0	---	0.00	30.009 
04:35	62.9	62.9	62.9	93	60.8	0	0	---	0.00	30.009 
04:40	62.9	62.9	62.9	93	60.8	0	0	---	0.00	30.009 
04:45	62.9	62.9	62.9	93	60.8	0	0	---	0.00	30.008 
04:50	63.1	63.1	63.1	93	61.0	0	0	---	0.00	30.008 
04:55	63.1	63.1	63.1	93	61.0	0	0	---	0.00	30.008 
05:00	63.1	63.1	63.1	93	61.0	0	0	---	0.00	30.009 
05:05	63.1	63.1	63.1	93	61.0	0	1	292	0.00	30.009 
05:10	63.1	63.1	63.1	93	61.0	0	0	---	0.00	30.009 
05:15	63.1	63.1	63.1	93	61.0	0	0	---	0.00	30.009 
05:20	63.1	63.1	63.1	93	61.0	0	0	---	0.00	30.009 
05:25	62.9	62.9	62.9	93	60.8	0	1	292	0.00	30.009 
05:30	63.1	63.1	63.1	93	61.0	0	2	315	0.00	30.009 
05:35	63.1	63.1	63.1	93	61.0	0	0	---	0.00	30.009 
05:40	62.9	62.9	62.9	93	60.8	0	0	---	0.00	30.009 
05:45	62.9	62.9	62.9	93	60.8	0	1	315	0.00	30.011 
05:50	62.9	62.9	62.9	93	60.8	0	0	---	0.00	30.011 
05:55	62.9	62.9	62.9	93	60.8	0	0	---	0.00	30.011 
06:00	62.9	62.9	62.9	93	60.8	0	0	---	0.00	30.016 
06:05	62.9	62.9	62.9	94	61.1	0	0	---	0.00	30.016 
06:10	62.7	62.7	62.7	94	60.9	0	0	---	0.00	30.016 
06:15	62.7	62.7	62.7	94	60.9	0	0	---	0.00	30.019 
06:20	62.7	62.7	62.7	94	60.9	0	0	---	0.00	30.019 
06:25	62.7	62.7	62.7	94	60.9	0	0	---	0.00	30.019 
06:30	62.6	62.6	62.6	94	60.8	0	0	---	0.00	30.022 
06:35	62.6	62.6	62.6	94	60.8	0	0	---	0.00	30.022 
06:40	62.9	62.9	62.9	94	61.1	0	0	---	0.00	30.022 
06:45	63.1	63.1	63.1	94	61.3	0	0	---	0.00	30.026 
06:50	63.1	63.1	63.1	94	61.3	0	0	---	0.00	30.026 
06:55	63.1	63.1	63.1	94	61.3	0	0	---	0.00	30.026 
07:00	63.1	63.1	63.1	94	61.3	0	0	---	0.00	30.035 
07:05	62.9	62.9	62.9	94	61.1	0	0	---	0.00	30.035 
07:10	62.9	62.9	62.9	95	61.4	0	0	---	0.00	30.035 
07:15	63.1	63.1	63.1	95	61.6	0	0	---	0.00	30.037 
07:20	63.1	63.1	63.1	95	61.6	0	0	---	0.00	30.037 
07:25	63.2	63.2	63.2	95	61.7	0	0	---	0.00	30.037 
07:30	63.4	63.4	63.4	95	61.9	0	0	---	0.00	30.041 
07:35	63.5	63.5	63.5	95	62.0	0	1	315	0.00	30.041 
07:40	63.9	63.9	63.9	95	62.4	0	0	---	0.00	30.041 
07:45	64.0	64.0	64.0	95	62.5	0	0	---	0.00	30.048 
07:50	64.3	64.3	64.3	95	62.8	0	1	315	0.00	30.048 
07:55	64.7	64.7	64.7	95	63.2	0	0	---	0.00	30.048 
08:00	65.0	65.0	65.0	95	63.5	0	0	---	0.00	30.050 
08:05	65.2	65.2	65.2	95	63.7	0	0	---	0.00	30.050 
08:10	65.6	65.6	65.6	94	63.8	0	0	---	0.00	30.050 
08:15	66.0	66.0	66.0	94	64.2	0	2	315	0.00	30.050 
08:20	66.3	66.3	66.3	93	64.2	0	1	315	0.00	30.050 
08:25	66.6	66.6	66.6	92	64.2	0	3	135	0.00	30.050 
08:30	67.1	67.1	67.1	91	64.4	0	1	135	0.00	30.057 
08:35	67.3	67.3	67.3	91	64.6	0	1	135	0.00	30.057 
08:40	67.8	67.8	67.8	90	64.8	0	1	135	0.00	30.057 
08:45	67.9	67.9	67.9	88	64.2	0	3	135	0.00	30.063 
08:50	68.1	68.1	68.1	87	64.1	0	1	135	0.00	30.063 
08:55	68.3	68.3	68.3	87	64.3	0	2	135	0.00	30.063 
09:00	68.4	68.4	68.4	87	64.4	0	1	135	0.00	30.064 
09:05	68.4	68.4	68.4	86	64.0	0	1	135	0.00	30.064 
09:10	68.6	68.6	68.6	85	63.9	0	1	135	0.00	30.064 
09:15	68.9	68.9	68.9	86	64.5	0	0	---	0.00	30.069 
09:20	69.1	69.1	69.1	85	64.4	0	2	135	0.00	30.069 
09:25	69.3	69.3	69.3	85	64.6	0	2	135	0.00	30.069 
09:30	69.3	69.3	69.3	85	64.6	1	3	135	0.00	30.074 
09:35	69.3	69.3	69.3	86	64.9	0	2	135	0.00	30.074 
09:40	69.4	69.4	69.4	86	65.0	0	2	135	0.00	30.074 
09:45	69.6	69.6	69.6	85	64.9	0	2	135	0.00	30.073 
09:50	69.9	69.9	69.9	85	65.2	0	2	135	0.00	30.073 
09:55	70.4	70.4	70.4	85	65.7	0	0	---	0.00	30.073 
10:00	70.6	70.6	70.6	82	64.8	1	3	135	0.00	30.073 
10:05	70.9	70.9	70.9	84	65.8	0	1	135	0.00	30.073 
10:10	71.1	71.1	71.1	82	65.3	1	2	135	0.00	30.073 
10:15	71.8	71.8	71.8	80	65.3	1	3	45	0.00	30.072 
10:20	72.5	72.5	72.5	80	66.0	1	2	45	0.00	30.072 
10:25	73.0	73.0	73.0	78	65.7	1	4	68	0.00	30.072 
10:30	73.5	73.5	73.5	76	65.5	1	3	68	0.00	30.072 
10:35	73.3	73.3	73.3	77	65.6	1	5	112	0.00	30.072 
10:40	73.7	73.7	73.7	78	66.4	0	2	112	0.00	30.072 
10:45	74.0	74.0	74.0	76	65.9	0	2	112	0.00	30.075 
10:50	73.9	73.9	73.9	77	66.2	0	2	112	0.00	30.075 
10:55	73.9	73.9	73.9	77	66.2	0	2	112	0.00	30.075 
11:00	73.7	73.7	73.7	77	66.0	0	1	112	0.00	30.078 
11:05	73.7	73.7	73.7	77	66.0	0	1	112	0.00	30.078 
11:10	73.9	73.9	73.9	76	65.8	1	5	112	0.00	30.078 
11:15	74.4	74.4	74.4	76	66.3	1	3	90	0.00	30.079 
11:20	74.7	74.7	74.7	77	67.0	0	2	90	0.00	30.079 
11:25	74.9	74.9	74.9	76	66.8	0	3	90	0.00	30.079 
11:30	74.7	74.7	74.7	75	66.2	0	1	90	0.00	30.082 
11:35	74.6	74.6	74.6	75	66.1	0	1	90	0.00	30.082 
11:40	74.4	74.4	74.4	74	65.6	0	2	90	0.00	30.082 
11:45	74.9	74.9	74.9	75	66.4	0	1	90	0.00	30.083 
11:50	76.0	76.0	77.7	70	65.5	1	3	90	0.00	30.083 
11:55	76.5	76.5	78.3	68	65.1	0	2	90	0.00	30.083 
12:00	76.8	76.8	78.5	71	66.7	1	4	90	0.00	30.090 
12:05	77.4	77.4	79.2	68	66.0	1	2	90	0.00	30.090 
12:10	77.6	77.6	79.5	69	66.6	0	2	90	0.00	30.090 
12:15	77.6	77.6	79.4	63	64.0	0	1	90	0.00	30.091 
12:20	76.8	76.8	78.6	65	64.1	0	3	90	0.00	30.091 
12:25	76.8	76.8	78.6	67	65.0	0	3	90	0.00	30.091 
12:30	76.8	76.8	78.6	64	63.7	0	2	90	0.00	30.091 
12:35	77.4	77.4	79.2	64	64.2	0	2	90	0.00	30.091 
12:40	77.9	77.9	79.7	64	64.7	0	3	90	0.00	30.091 
12:45	78.6	78.6	80.4	63	64.9	1	4	90	0.00	30.084 
12:50	79.6	79.6	81.4	61	64.9	0	2	112	0.00	30.084 
12:55	80.1	80.1	81.7	58	64.0	1	4	112	0.00	30.084 
13:00	79.8	79.8	81.4	58	63.7	1	3	338	0.00	30.080 
13:05	79.0	79.0	80.6	59	63.4	1	2	338	0.00	30.080 
13:10	78.8	78.8	80.5	61	64.2	1	3	338	0.00	30.080 
13:15	78.5	78.5	80.2	61	63.9	1	3	315	0.00	30.078 
13:20	78.5	78.5	80.3	62	64.4	0	2	315	0.00	30.078 
13:25	78.5	78.5	80.3	62	64.4	0	2	338	0.00	30.078 
13:30	78.3	78.3	80.0	60	63.2	1	3	338	0.00	30.079 
13:35	78.6	78.6	80.3	61	64.0	1	2	338	0.00	30.079 
13:40	79.2	79.2	80.8	59	63.6	0	2	338	0.00	30.079 
13:45	79.8	79.8	81.6	60	64.7	1	3	338	0.00	30.076 
13:50	79.6	79.6	81.2	58	63.5	0	2	225	0.00	30.076 
13:55	79.8	79.8	81.2	56	62.7	0	2	225	0.00	30.076 
14:00	80.3	80.3	81.7	56	63.1	1	3	180	0.00	30.073 
14:05	81.2	81.2	82.7	56	64.0	1	4	135	0.00	30.073 
14:10	80.9	80.9	82.3	55	63.2	0	1	180	0.00	30.073 
14:15	79.8	79.8	81.3	57	63.2	0	2	68	0.00	30.072 
14:20	79.6	79.6	81.2	58	63.5	1	3	68	0.00	30.072 
14:25	80.1	80.1	81.6	57	63.5	1	2	225	0.00	30.072 
14:30	80.7	80.7	82.0	55	63.0	1	3	248	0.00	30.067 
14:35	80.1	80.1	81.4	55	62.4	0	3	315	0.00	30.067 
14:40	78.8	78.8	80.1	55	61.2	0	2	315	0.00	30.067 
14:45	78.5	78.5	80.0	57	62.0	0	2	338	0.00	30.067 
14:50	79.4	79.4	80.5	53	60.8	1	2	0	0.00	30.067 
14:55	80.5	80.5	81.7	54	62.3	1	4	0	0.00	30.067 
15:00	80.9	80.9	82.3	55	63.2	1	3	270	0.00	30.062 
15:05	80.7	80.7	81.9	54	62.5	1	2	338	0.00	30.062 
15:10	81.1	81.1	82.0	51	61.2	1	2	292	0.00	30.062 
15:15	81.8	81.8	83.0	53	63.0	1	2	292	0.00	30.060 
15:20	82.2	82.2	83.5	53	63.3	1	3	292	0.00	30.060 
15:25	82.0	82.0	82.5	48	60.3	1	3	292	0.00	30.060 
15:30	81.2	81.2	81.8	49	60.2	1	2	292	0.00	30.060 
15:35	81.6	81.6	83.1	55	63.8	0	2	270	0.00	30.060 
15:40	82.0	82.0	82.8	50	61.5	1	3	270	0.00	30.060 
15:45	81.8	81.8	82.4	49	60.7	1	2	338	0.00	30.060 
15:50	82.2	82.2	82.7	48	60.5	1	3	225	0.00	30.060 
15:55	82.6	82.6	83.4	50	62.0	0	2	225	0.00	30.060 
16:00	83.2	83.2	83.8	48	61.4	1	5	90	0.00	30.056 
16:05	82.4	82.4	82.9	48	60.7	0	2	90	0.00	30.056 
16:10	80.9	80.9	81.6	50	60.5	0	1	90	0.00	30.056 
16:15	79.9	79.9	80.9	52	60.7	0	1	90	0.00	30.057 
16:20	79.8	79.8	80.8	52	60.6	0	2	90	0.00	30.057 
16:25	80.7	80.7	81.4	50	60.3	0	3	315	0.00	30.057 
16:30	81.6	81.6	82.6	52	62.2	0	2	315	0.00	30.050 
16:35	82.0	82.0	82.3	47	59.8	2	4	315	0.00	30.050 
16:40	82.0	82.0	82.3	47	59.8	0	1	270	0.00	30.050 
16:45	81.4	81.4	82.1	50	60.9	1	4	270	0.00	30.048 
16:50	80.5	80.5	81.3	50	60.1	0	2	270	0.00	30.048 
16:55	79.8	79.8	80.8	52	60.6	0	1	270	0.00	30.048 
17:00	79.6	79.6	80.7	53	60.9	0	1	270	0.00	30.052 
17:05	80.1	80.1	80.9	50	59.8	0	1	270	0.00	30.052 
17:10	80.9	80.9	81.8	51	61.0	0	1	270	0.00	30.052 
17:15	81.1	81.1	81.8	50	60.7	0	1	270	0.00	30.050 
17:20	81.1	81.1	81.7	49	60.1	1	3	270	0.00	30.050 
17:25	81.2	81.2	81.9	50	60.8	0	2	270	0.00	30.050 
17:30	81.8	81.8	82.4	49	60.7	0	2	270	0.00	30.048 
17:35	82.2	82.2	82.8	49	61.1	0	1	270	0.00	30.048 
17:40	82.2	82.2	82.4	46	59.3	1	3	292	0.00	30.048 
17:45	82.2	82.2	82.8	49	61.1	0	2	292	0.00	30.049 
17:50	82.2	82.2	82.4	46	59.3	1	3	292	0.00	30.049 
17:55	82.2	82.2	82.5	47	59.9	0	1	68	0.00	30.049 
18:00	82.0	82.0	82.2	46	59.1	1	4	292	0.00	30.047 
18:05	82.0	82.0	82.3	47	59.8	0	3	292	0.00	30.047 
18:10	81.8	81.8	82.3	48	60.2	1	4	292	0.00	30.047 
18:15	81.4	81.4	81.8	47	59.2	1	3	292	0.00	30.047 
18:20	81.1	81.1	81.7	49	60.1	1	4	292	0.00	30.047 
18:25	80.7	80.7	81.2	48	59.2	0	2	292	0.00	30.047 
18:30	80.1	80.1	81.0	51	60.3	0	2	292	0.00	30.047 
18:35	79.9	79.9	80.9	52	60.7	0	2	292	0.00	30.047 
18:40	80.1	80.1	81.0	51	60.3	1	4	292	0.00	30.047 
18:45	80.3	80.3	81.3	52	61.0	1	3	292	0.00	30.044 
18:50	80.3	80.3	81.1	50	59.9	0	2	292	0.00	30.044 
18:55	80.3	80.3	81.1	50	59.9	0	2	292	0.00	30.044 
19:00	80.1	80.1	80.9	50	59.8	0	1	292	0.00	30.044 
19:05	80.1	80.1	80.9	50	59.8	0	3	292	0.00	30.044 
19:10	79.8	79.8	80.7	51	60.0	1	2	315	0.00	30.044 
19:15	79.6	79.6	80.6	52	60.4	0	2	270	0.00	30.042 
19:20	79.6	79.6	80.6	52	60.4	0	2	270	0.00	30.042 
19:25	79.4	79.4	80.5	53	60.8	0	1	270	0.00	30.042 
19:30	79.4	79.4	80.5	53	60.8	0	1	270	0.00	30.043 
19:35	79.4	79.4	80.6	54	61.3	0	1	270	0.00	30.043 
19:40	79.4	79.4	80.5	52	60.2	0	2	270	0.00	30.043 
19:45	79.2	79.2	80.4	53	60.6	0	1	270	0.00	30.045 
19:50	79.0	79.0	80.3	54	60.9	0	1	270	0.00	30.045 
19:55	78.8	78.8	80.0	53	60.2	0	1	270	0.00	30.045 
20:00	78.5	78.5	79.8	54	60.4	0	1	292	0.00	30.047 
20:05	78.1	78.1	79.5	55	60.6	0	1	292	0.00	30.047 
20:10	77.7	77.7	79.3	56	60.7	0	1	292	0.00	30.047 
20:15	77.4	77.4	79.0	56	60.5	0	1	292	0.00	30.049 
20:20	77.0	77.0	78.7	57	60.6	0	0	---	0.00	30.049 
20:25	76.7	76.7	78.5	57	60.3	0	0	---	0.00	30.049 
20:30	76.5	76.5	78.4	58	60.6	0	1	292	0.00	30.051 
20:35	76.1	76.1	78.1	58	60.2	0	0	---	0.00	30.051 
20:40	75.8	75.8	77.9	59	60.4	0	1	292	0.00	30.051 
20:45	75.6	75.6	77.7	60	60.7	0	0	---	0.00	30.057 
20:50	75.3	75.3	77.5	61	60.9	0	0	---	0.00	30.057 
20:55	75.1	75.1	77.4	61	60.7	0	3	158	0.00	30.057 
21:00	74.9	74.9	74.9	62	61.0	0	0	---	0.00	30.062 
21:05	74.9	74.9	74.9	62	61.0	0	0	---	0.00	30.062 
21:10	74.7	74.7	74.7	62	60.8	0	1	158	0.00	30.062 
21:15	74.6	74.6	74.6	62	60.7	0	2	112	0.00	30.061 
21:20	74.6	74.6	74.6	62	60.7	0	0	---	0.00	30.061 
21:25	74.4	74.4	74.4	62	60.5	0	1	112	0.00	30.061 
21:30	74.2	74.2	74.2	63	60.8	0	1	112	0.00	30.064 
21:35	74.0	74.0	74.0	63	60.6	0	1	112	0.00	30.064 
21:40	73.7	73.7	73.7	63	60.3	0	1	112	0.00	30.064 
21:45	73.3	73.3	73.3	64	60.4	0	1	112	0.00	30.075 
21:50	73.0	73.0	73.0	64	60.1	0	0	---	0.00	30.075 
21:55	72.7	72.7	72.7	65	60.2	0	0	---	0.00	30.075 
22:00	72.3	72.3	72.3	65	59.9	0	0	---	0.00	30.079 
22:05	71.8	71.8	71.8	66	59.8	0	0	---	0.00	30.079 
22:10	71.5	71.5	71.5	67	60.0	0	0	---	0.00	30.079 
22:15	71.1	71.1	71.1	68	60.0	0	0	---	0.00	30.081 
22:20	70.6	70.6	70.6	69	59.9	0	0	---	0.00	30.081 
22:25	70.3	70.3	70.3	70	60.0	0	0	---	0.00	30.081 
22:30	69.9	69.9	69.9	71	60.1	0	0	---	0.00	30.081 
22:35	69.6	69.6	69.6	72	60.2	0	0	---	0.00	30.081 
22:40	69.3	69.3	69.3	73	60.3	0	0	---	0.00	30.081 
22:45	68.9	68.9	68.9	74	60.3	0	0	---	0.00	30.082 
22:50	68.6	68.6	68.6	75	60.3	0	0	---	0.00	30.082 
22:55	68.3	68.3	68.3	76	60.4	0	0	---	0.00	30.082 
23:00	68.1	68.1	68.1	77	60.6	0	0	---	0.00	30.084 
23:05	67.8	67.8	67.8	77	60.3	0	0	---	0.00	30.084 
23:10	67.4	67.4	67.4	78	60.3	0	0	---	0.00	30.084 
23:15	67.3	67.3	67.3	79	60.6	0	0	---	0.00	30.085 
23:20	66.9	66.9	66.9	80	60.5	0	0	---	0.00	30.085 
23:25	66.6	66.6	66.6	81	60.6	0	0	---	0.00	30.085 
23:30	66.4	66.4	66.4	81	60.4	0	0	---	0.00	30.089 
23:35	66.1	66.1	66.1	82	60.4	0	0	---	0.00	30.089 
23:40	66.0	66.0	66.0	83	60.7	0	0	---	0.00	30.089 
23:45	65.6	65.6	65.6	83	60.3	0	0	---	0.00	30.087 
23:50	65.5	65.5	65.5	84	60.5	0	0	---	0.00	30.087 
23:55	65.3	65.3	65.3	84	60.3	0	0	---	0.00	30.087 

CoCoRaHS
IN-AL-39
A2 Web Hosting
Creative Commons License
GoDaddy
search engine by freefind advanced

loaded 2018-11-20 08:20:54 • last modified 2010-11-18 10:43:29
Privacy PolicyDisclaimer
• wx.awcolley.com is powered by PmWiki v.2002016 •
• all content (unless otherwise noted) © 2018 A W Colley